createdAt,value
2022-11-29T00:01:42.721Z,90.68
2022-11-29T00:04:10.028Z,102.18
2022-11-29T00:06:36.722Z,142.93
2022-11-29T00:09:06.806Z,76.40
2022-11-29T00:11:54.573Z,68.80
2022-11-29T00:14:22.688Z,48.63
2022-11-29T00:16:55.517Z,95.13
2022-11-29T00:19:22.463Z,102.57
2022-11-29T00:21:49.394Z,298.93
2022-11-29T00:24:16.426Z,113.13
2022-11-29T00:26:43.126Z,131.68
2022-11-29T00:29:12.534Z,141.95
2022-11-29T00:31:40.238Z,157.73
2022-11-29T00:34:07.732Z,143.77
2022-11-29T00:36:35.569Z,152.05
2022-11-29T00:39:04.183Z,150.02
2022-11-29T00:41:31.030Z,209.30
2022-11-29T00:43:57.883Z,175.32
2022-11-29T00:46:25.280Z,142.73
2022-11-29T00:48:52.062Z,98.45
2022-11-29T00:51:18.840Z,105.97
2022-11-29T00:53:45.556Z,132.93
2022-11-29T00:56:12.396Z,128.90
2022-11-29T00:58:39.477Z,205.87
2022-11-29T01:01:08.351Z,79.95
2022-11-29T01:03:35.315Z,112.82
2022-11-29T01:06:08.967Z,126.75
2022-11-29T01:08:36.444Z,113.85
2022-11-29T01:11:05.415Z,137.93
2022-11-29T01:13:32.303Z,96.22
2022-11-29T01:16:00.302Z,55.65
2022-11-29T01:18:27.358Z,98.63
2022-11-29T01:21:03.518Z,96.97
2022-11-29T01:23:30.460Z,61.53
2022-11-29T01:26:05.600Z,100.72
2022-11-29T01:28:32.676Z,102.78
2022-11-29T01:30:59.620Z,108.30
2022-11-29T01:33:26.475Z,93.40
2022-11-29T01:35:55.164Z,183.07
2022-11-29T01:38:22.616Z,134.73
2022-11-29T01:41:06.385Z,165.43
2022-11-29T01:43:34.520Z,164.82
2022-11-29T01:46:01.254Z,141.10
2022-11-29T01:48:30.948Z,77.80
2022-11-29T01:51:00.787Z,90.45
2022-11-29T01:53:28.338Z,102.78
2022-11-29T01:56:00.620Z,270.63
2022-11-29T01:58:28.222Z,141.93
2022-11-29T02:00:57.086Z,123.10
2022-11-29T02:03:23.926Z,239.93
2022-11-29T02:05:52.243Z,205.30
2022-11-29T02:08:28.281Z,117.32
2022-11-29T02:11:20.558Z,95.82
2022-11-29T02:14:05.671Z,81.43
2022-11-29T02:16:55.046Z,137.40
2022-11-29T02:19:48.498Z,156.40
2022-11-29T02:22:38.310Z,166.98
2022-11-29T02:25:39.025Z,255.88
2022-11-29T02:28:05.652Z,142.33
2022-11-29T02:30:51.329Z,228.15
2022-11-29T02:33:36.357Z,158.18
2022-11-29T02:36:19.008Z,120.35
2022-11-29T02:39:02.831Z,162.13
2022-11-29T02:42:08.779Z,142.50
2022-11-29T02:44:35.484Z,155.77
2022-11-29T02:47:09.938Z,224.10
2022-11-29T02:50:00.794Z,144.18
2022-11-29T02:53:04.655Z,106.72
2022-11-29T02:55:43.384Z,103.67
2022-11-29T02:58:27.872Z,177.43
2022-11-29T03:01:25.141Z,132.38
2022-11-29T03:04:10.564Z,109.22
2022-11-29T03:07:07.160Z,96.28
2022-11-29T03:09:43.645Z,98.47
2022-11-29T03:12:24.390Z,88.47
2022-11-29T03:15:16.864Z,105.00
2022-11-29T03:18:21.401Z,86.82
2022-11-29T03:21:06.776Z,125.65
2022-11-29T03:23:45.438Z,91.23
2022-11-29T03:26:37.955Z,184.63
2022-11-29T03:29:17.929Z,113.00
2022-11-29T03:31:51.254Z,142.98
2022-11-29T03:34:36.091Z,113.30
2022-11-29T03:37:28.994Z,112.87
2022-11-29T03:40:04.807Z,115.35
2022-11-29T03:42:49.998Z,114.82
2022-11-29T03:45:24.965Z,158.52
2022-11-29T03:48:23.592Z,218.70
2022-11-29T03:51:00.082Z,179.03
2022-11-29T03:53:54.164Z,141.80
2022-11-29T03:56:29.972Z,123.28
2022-11-29T03:59:17.767Z,121.38
2022-11-29T04:01:54.773Z,162.43
2022-11-29T04:05:08.025Z,145.57
2022-11-29T04:07:56.580Z,173.77
2022-11-29T04:10:32.119Z,201.75
2022-11-29T04:13:07.978Z,235.55
2022-11-29T04:16:10.665Z,191.90
2022-11-29T04:19:10.604Z,116.50
2022-11-29T04:21:58.599Z,261.10
2022-11-29T04:24:50.131Z,253.77
2022-11-29T04:27:35.723Z,188.63
2022-11-29T04:30:11.649Z,208.68
2022-11-29T04:33:00.083Z,219.73
2022-11-29T04:35:33.332Z,107.78
2022-11-29T04:38:03.174Z,426.67
2022-11-29T04:40:55.890Z,596.53
2022-11-29T04:43:54.333Z,378.73
2022-11-29T04:46:26.768Z,162.53
2022-11-29T04:49:21.100Z,237.05
2022-11-29T04:52:14.977Z,232.70
2022-11-29T04:54:51.979Z,242.02
2022-11-29T04:57:32.977Z,245.48
2022-11-29T05:00:09.908Z,277.73
2022-11-29T05:02:56.016Z,295.45
2022-11-29T05:05:50.793Z,233.43
2022-11-29T05:08:32.436Z,239.30
2022-11-29T05:11:11.358Z,230.18
2022-11-29T05:14:04.605Z,317.20
2022-11-29T05:17:03.575Z,296.25
2022-11-29T05:19:56.238Z,147.68
2022-11-29T05:22:25.980Z,162.27
2022-11-29T05:25:04.271Z,368.88
2022-11-29T05:27:55.516Z,135.53
2022-11-29T05:30:24.761Z,265.67
2022-11-29T05:33:31.339Z,139.95
2022-11-29T05:36:22.541Z,335.27
2022-11-29T05:39:24.514Z,172.90
2022-11-29T05:42:20.162Z,252.20
2022-11-29T05:44:56.917Z,212.75
2022-11-29T05:47:50.788Z,249.38
2022-11-29T05:50:30.663Z,126.43
2022-11-29T05:53:08.050Z,222.02
2022-11-29T05:55:56.364Z,157.90
2022-11-29T05:58:33.563Z,271.33
2022-11-29T06:01:09.569Z,245.60
2022-11-29T06:03:53.644Z,230.23
2022-11-29T06:06:39.184Z,130.77
2022-11-29T06:09:21.200Z,149.33
2022-11-29T06:11:54.879Z,207.95
2022-11-29T06:14:52.298Z,228.15
2022-11-29T06:17:38.846Z,133.38
2022-11-29T06:20:19.258Z,239.55
2022-11-29T06:23:14.636Z,279.73
2022-11-29T06:26:22.778Z,318.40
2022-11-29T06:29:13.633Z,193.63
2022-11-29T06:31:44.634Z,244.70
2022-11-29T06:34:20.334Z,276.42
2022-11-29T06:36:52.782Z,253.13
2022-11-29T06:39:19.899Z,202.68
2022-11-29T06:41:47.166Z,130.00
2022-11-29T06:44:14.331Z,158.38
2022-11-29T06:46:54.669Z,236.25
2022-11-29T06:49:28.558Z,124.40
2022-11-29T06:52:23.176Z,193.13
2022-11-29T06:55:18.205Z,167.15
2022-11-29T06:58:03.948Z,357.50
2022-11-29T07:00:50.549Z,290.25
2022-11-29T07:03:35.390Z,219.63
2022-11-29T07:06:21.157Z,138.25
2022-11-29T07:08:52.003Z,288.65
2022-11-29T07:11:19.020Z,254.20
2022-11-29T07:13:46.039Z,340.85
2022-11-29T07:16:43.644Z,373.10
2022-11-29T07:19:32.456Z,183.48
2022-11-29T07:22:38.172Z,221.80
2022-11-29T07:25:05.983Z,152.65
2022-11-29T07:27:43.634Z,145.88
2022-11-29T07:30:15.304Z,606.67
2022-11-29T07:33:00.038Z,128.15
2022-11-29T07:36:08.830Z,956.58
2022-11-29T07:38:56.056Z,130.27
2022-11-29T07:42:18.257Z,214.35
2022-11-29T07:45:31.845Z,235.67
2022-11-29T07:47:59.325Z,394.25
2022-11-29T07:50:27.297Z,234.05
2022-11-29T07:52:55.598Z,176.27
2022-11-29T07:55:25.416Z,319.23
2022-11-29T07:57:53.077Z,217.53
2022-11-29T08:00:20.498Z,199.55
2022-11-29T08:02:52.297Z,191.18
2022-11-29T08:05:19.211Z,291.58
2022-11-29T08:07:47.345Z,317.60
2022-11-29T08:10:16.264Z,365.33
2022-11-29T08:12:52.406Z,297.75
2022-11-29T08:15:20.789Z,119.20
2022-11-29T08:17:48.264Z,201.77
2022-11-29T08:20:16.670Z,288.92
2022-11-29T08:22:43.631Z,187.60
2022-11-29T08:25:10.853Z,194.48
2022-11-29T08:27:38.512Z,138.90
2022-11-29T08:30:06.732Z,160.75
2022-11-29T08:32:34.630Z,172.65
2022-11-29T08:35:01.496Z,221.97
2022-11-29T08:37:28.313Z,139.98
2022-11-29T08:39:56.064Z,225.73
2022-11-29T08:42:22.741Z,305.25
2022-11-29T08:44:49.565Z,137.35
2022-11-29T08:47:34.739Z,104.83
2022-11-29T08:50:02.251Z,179.70
2022-11-29T08:52:53.013Z,99.15
2022-11-29T08:55:21.236Z,105.22
2022-11-29T08:57:49.263Z,99.35
2022-11-29T09:00:17.163Z,51.27
2022-11-29T09:02:44.088Z,55.38
2022-11-29T09:05:11.778Z,73.95
2022-11-29T09:07:38.934Z,60.85
2022-11-29T09:10:08.309Z,82.32
2022-11-29T09:12:39.670Z,74.93
2022-11-29T09:15:09.130Z,139.77
2022-11-29T09:17:36.039Z,66.13
2022-11-29T09:20:03.916Z,61.85
2022-11-29T09:22:31.092Z,76.68
2022-11-29T09:24:57.766Z,81.33
2022-11-29T09:27:24.525Z,96.65
2022-11-29T09:29:51.218Z,89.50
2022-11-29T09:32:18.011Z,68.25
2022-11-29T09:34:45.109Z,56.55
2022-11-29T09:37:12.153Z,74.27
2022-11-29T09:39:40.310Z,64.38
2022-11-29T09:42:09.995Z,62.33
2022-11-29T09:45:10.914Z,61.70
2022-11-29T09:47:57.822Z,56.78
2022-11-29T09:50:35.790Z,63.97
2022-11-29T09:53:26.001Z,128.10
2022-11-29T09:56:18.491Z,61.20
2022-11-29T09:59:12.612Z,58.50
2022-11-29T10:01:45.176Z,55.85
2022-11-29T10:04:19.494Z,38.80
2022-11-29T10:06:59.452Z,62.20
2022-11-29T10:09:34.470Z,59.03
2022-11-29T10:12:14.527Z,66.53
2022-11-29T10:14:45.994Z,42.85
2022-11-29T10:17:38.495Z,75.40
2022-11-29T10:20:13.615Z,87.38
2022-11-29T10:22:49.603Z,103.85
2022-11-29T10:25:23.338Z,65.70
2022-11-29T10:27:50.697Z,98.57
2022-11-29T10:30:18.130Z,67.80
2022-11-29T10:32:48.523Z,48.00
2022-11-29T10:35:18.734Z,51.35
2022-11-29T10:38:07.807Z,118.20
2022-11-29T10:40:35.864Z,55.95
2022-11-29T10:43:03.055Z,147.40
2022-11-29T10:45:50.048Z,64.10
2022-11-29T10:48:19.181Z,91.40
2022-11-29T10:50:49.104Z,112.00
2022-11-29T10:53:18.409Z,87.72
2022-11-29T10:56:06.803Z,89.70
2022-11-29T10:58:33.577Z,27.73
2022-11-29T11:01:07.790Z,77.75
2022-11-29T11:03:52.790Z,139.70
2022-11-29T11:06:19.866Z,95.85
2022-11-29T11:08:51.234Z,83.97
2022-11-29T11:11:33.809Z,97.00
2022-11-29T11:14:22.022Z,182.48
2022-11-29T11:16:49.179Z,96.20
2022-11-29T11:19:33.616Z,111.38
2022-11-29T11:22:04.235Z,167.27
2022-11-29T11:24:33.723Z,76.82
2022-11-29T11:27:01.488Z,88.45
2022-11-29T11:29:52.361Z,61.10
2022-11-29T11:32:20.544Z,120.13
2022-11-29T11:35:01.496Z,98.73
2022-11-29T11:37:31.076Z,47.20
2022-11-29T11:40:00.585Z,47.00
2022-11-29T11:42:38.941Z,69.38
2022-11-29T11:45:34.156Z,42.88
2022-11-29T11:48:13.414Z,43.20
2022-11-29T11:50:49.798Z,52.85
2022-11-29T11:53:22.304Z,42.78
2022-11-29T11:56:11.865Z,82.82
2022-11-29T11:58:44.520Z,41.63
2022-11-29T12:01:25.229Z,97.67
2022-11-29T12:03:58.493Z,79.13
2022-11-29T12:06:30.139Z,35.72
2022-11-29T12:09:32.286Z,47.22
2022-11-29T12:12:15.812Z,57.83
2022-11-29T12:14:54.765Z,44.33
2022-11-29T12:17:49.853Z,51.90
2022-11-29T12:20:42.581Z,60.42
2022-11-29T12:23:12.018Z,24.17
2022-11-29T12:25:50.760Z,28.75
2022-11-29T12:28:20.799Z,36.27
2022-11-29T12:31:11.976Z,25.92
2022-11-29T12:33:57.368Z,33.47
2022-11-29T12:36:35.380Z,55.28
2022-11-29T12:39:08.243Z,28.90
2022-11-29T12:41:53.963Z,44.07
2022-11-29T12:44:49.351Z,66.05
2022-11-29T12:47:36.473Z,37.47
2022-11-29T12:50:24.193Z,35.95
2022-11-29T12:53:24.006Z,23.90
2022-11-29T12:56:18.803Z,29.87
2022-11-29T12:59:01.858Z,44.30
2022-11-29T13:01:35.371Z,35.47
2022-11-29T13:04:22.556Z,80.03
2022-11-29T13:07:04.411Z,109.80
2022-11-29T13:10:02.527Z,114.43
2022-11-29T13:12:41.471Z,71.55
2022-11-29T13:15:14.123Z,67.35
2022-11-29T13:17:59.349Z,113.75
2022-11-29T13:20:36.534Z,119.00
2022-11-29T13:23:14.596Z,76.73
2022-11-29T13:25:44.107Z,84.45
2022-11-29T13:28:29.999Z,142.02
2022-11-29T13:31:05.947Z,62.70
2022-11-29T13:33:50.807Z,42.47
2022-11-29T13:36:48.735Z,45.03
2022-11-29T13:39:46.333Z,66.28
2022-11-29T13:42:31.923Z,65.90
2022-11-29T13:45:16.677Z,57.47
2022-11-29T13:48:00.914Z,47.05
2022-11-29T13:50:39.251Z,62.20
2022-11-29T13:53:43.898Z,41.22
2022-11-29T13:56:46.765Z,39.63
2022-11-29T13:59:36.115Z,24.30
2022-11-29T14:02:04.226Z,49.78
2022-11-29T14:04:39.744Z,93.97
2022-11-29T14:07:11.405Z,94.15
2022-11-29T14:09:47.464Z,111.78
2022-11-29T14:12:22.194Z,53.50
2022-11-29T14:14:53.394Z,83.50
2022-11-29T14:17:50.178Z,89.80
2022-11-29T14:20:22.865Z,135.85
2022-11-29T14:23:04.793Z,108.57
2022-11-29T14:28:21.681Z,84.90
2022-11-29T14:30:51.349Z,96.33
2022-11-29T14:33:42.871Z,90.80
2022-11-29T14:36:15.349Z,65.85
2022-11-29T14:39:01.049Z,49.03
2022-11-29T14:41:49.746Z,96.63
2022-11-29T14:44:28.215Z,101.50
2022-11-29T14:47:02.337Z,66.45
2022-11-29T14:49:30.004Z,87.68
2022-11-29T14:52:14.777Z,84.38
2022-11-29T14:55:21.295Z,66.97
2022-11-29T14:57:48.040Z,132.87
2022-11-29T15:00:22.207Z,120.32
2022-11-29T15:02:57.599Z,93.20
2022-11-29T15:05:33.286Z,78.10
2022-11-29T15:08:29.218Z,94.70
2022-11-29T15:11:04.357Z,71.70
2022-11-29T15:13:34.406Z,57.40
2022-11-29T15:16:22.931Z,51.67
2022-11-29T15:19:21.692Z,98.68
2022-11-29T15:22:06.412Z,64.60
2022-11-29T15:24:53.834Z,60.47
2022-11-29T15:27:21.007Z,93.80
2022-11-29T15:29:48.557Z,145.57
2022-11-29T15:32:27.959Z,86.82
2022-11-29T15:34:56.897Z,113.47
2022-11-29T15:37:30.940Z,157.03
2022-11-29T15:40:15.791Z,106.60
2022-11-29T15:42:47.346Z,106.47
2022-11-29T15:45:23.558Z,101.15
2022-11-29T15:47:50.455Z,102.70
2022-11-29T15:50:31.785Z,120.00
2022-11-29T15:53:03.876Z,125.50
2022-11-29T15:55:31.414Z,115.63
2022-11-29T15:58:02.703Z,83.40
2022-11-29T16:00:34.191Z,173.55
2022-11-29T16:03:02.695Z,89.63
2022-11-29T16:05:37.691Z,111.75
2022-11-29T16:08:08.667Z,160.52
2022-11-29T16:10:49.352Z,187.20
2022-11-29T16:13:28.269Z,162.80
2022-11-29T16:16:19.371Z,209.20
2022-11-29T16:18:48.083Z,212.77
2022-11-29T16:21:27.481Z,208.15
2022-11-29T16:23:55.074Z,307.27
2022-11-29T16:26:30.683Z,274.92
2022-11-29T16:29:05.922Z,285.47
2022-11-29T16:31:35.986Z,570.63
2022-11-29T16:34:27.606Z,224.25
2022-11-29T16:37:02.691Z,224.98
2022-11-29T16:39:29.976Z,293.95
2022-11-29T16:42:33.557Z,332.97
2022-11-29T16:45:31.354Z,284.60
2022-11-29T16:47:58.771Z,262.00
2022-11-29T16:50:33.008Z,166.07
2022-11-29T16:53:35.649Z,286.98
2022-11-29T16:56:03.981Z,110.43
2022-11-29T16:58:31.352Z,152.50
2022-11-29T17:00:58.058Z,144.73
2022-11-29T17:03:24.987Z,144.90
2022-11-29T17:05:51.796Z,51.30
2022-11-29T17:08:18.532Z,171.63
2022-11-29T17:10:45.269Z,93.07
2022-11-29T17:13:12.268Z,174.55
2022-11-29T17:15:39.047Z,92.55
2022-11-29T17:18:05.799Z,36.22
2022-11-29T17:20:32.596Z,39.60
2022-11-29T17:22:59.281Z,59.53
2022-11-29T17:25:26.012Z,53.47
2022-11-29T17:27:52.667Z,72.35
2022-11-29T17:30:19.436Z,67.05
2022-11-29T17:32:46.100Z,47.60
2022-11-29T17:35:12.937Z,45.72
2022-11-29T17:37:39.671Z,100.65
2022-11-29T17:40:07.176Z,186.82
2022-11-29T17:42:33.954Z,128.55
2022-11-29T17:45:00.674Z,170.20
2022-11-29T17:47:27.489Z,162.65
2022-11-29T17:49:54.567Z,65.78
2022-11-29T17:52:21.444Z,47.97
2022-11-29T17:54:48.195Z,28.58
2022-11-29T17:57:14.993Z,45.40
2022-11-29T17:59:41.932Z,74.28
2022-11-29T18:02:12.077Z,49.33
2022-11-29T18:04:42.196Z,35.22
2022-11-29T18:07:08.945Z,44.35
2022-11-29T18:09:35.639Z,51.67
2022-11-29T18:12:02.508Z,105.30
2022-11-29T18:14:30.879Z,173.93
2022-11-29T18:16:59.200Z,76.07
2022-11-29T18:19:26.100Z,148.80
2022-11-29T18:21:53.015Z,147.80
2022-11-29T18:24:19.994Z,53.42
2022-11-29T18:26:47.173Z,136.50
2022-11-29T18:29:14.395Z,70.70
2022-11-29T18:31:43.380Z,134.23
2022-11-29T18:34:11.780Z,87.90
2022-11-29T18:36:48.592Z,78.00
2022-11-29T18:39:17.540Z,60.95
2022-11-29T18:41:48.358Z,63.88
2022-11-29T18:44:17.389Z,51.20
2022-11-29T18:46:45.420Z,66.17
2022-11-29T18:49:15.396Z,97.13
2022-11-29T18:51:44.568Z,48.83
2022-11-29T18:54:12.420Z,84.07
2022-11-29T18:56:39.654Z,56.75
2022-11-29T18:59:10.310Z,56.23
2022-11-29T19:01:41.205Z,78.45
2022-11-29T19:04:14.629Z,99.85
2022-11-29T19:06:42.035Z,138.30
2022-11-29T19:09:21.724Z,86.03
2022-11-29T19:11:52.337Z,60.27
2022-11-29T19:14:20.765Z,80.30
2022-11-29T19:16:49.804Z,68.57
2022-11-29T19:19:18.657Z,90.20
2022-11-29T19:21:45.431Z,103.30
2022-11-29T19:24:14.995Z,114.27
2022-11-29T19:26:46.804Z,116.80
2022-11-29T19:29:14.815Z,77.38
2022-11-29T19:31:42.407Z,88.00
2022-11-29T19:34:09.264Z,59.97
2022-11-29T19:36:42.318Z,74.93
2022-11-29T19:39:09.306Z,147.50
2022-11-29T19:41:37.297Z,115.78
2022-11-29T19:44:07.477Z,74.72
2022-11-29T19:46:40.762Z,109.72
2022-11-29T19:49:08.958Z,83.47
2022-11-29T19:51:37.736Z,83.00
2022-11-29T19:54:07.039Z,54.60
2022-11-29T19:56:33.996Z,55.10
2022-11-29T19:59:00.780Z,51.42
2022-11-29T20:01:40.107Z,38.87
2022-11-29T20:04:09.594Z,39.38
2022-11-29T20:06:36.648Z,40.17
2022-11-29T20:09:04.073Z,42.47
2022-11-29T20:11:30.877Z,36.25
2022-11-29T20:13:59.910Z,34.67
2022-11-29T20:16:28.416Z,28.13
2022-11-29T20:19:01.848Z,35.13
2022-11-29T20:21:32.639Z,31.65
2022-11-29T20:24:05.889Z,29.58
2022-11-29T20:26:35.737Z,29.27
2022-11-29T20:29:04.683Z,29.23
2022-11-29T20:31:33.481Z,54.58
2022-11-29T20:34:00.630Z,49.72
2022-11-29T20:36:52.393Z,42.50
2022-11-29T20:39:47.693Z,39.90
2022-11-29T20:42:29.586Z,35.10
2022-11-29T20:45:06.573Z,42.40
2022-11-29T20:47:45.558Z,39.67
2022-11-29T20:50:27.470Z,41.08
2022-11-29T20:53:12.404Z,34.47
2022-11-29T20:55:44.828Z,36.80
2022-11-29T20:58:14.371Z,37.40
2022-11-29T21:00:41.164Z,35.42
2022-11-29T21:03:07.870Z,35.40
2022-11-29T21:05:38.134Z,36.50
2022-11-29T21:08:05.122Z,34.22
2022-11-29T21:10:31.948Z,32.92
2022-11-29T21:12:59.201Z,31.33
2022-11-29T21:15:26.715Z,32.00
2022-11-29T21:17:53.925Z,30.83
2022-11-29T21:20:26.298Z,30.98
2022-11-29T21:23:01.881Z,31.48
2022-11-29T21:25:58.055Z,31.63
2022-11-29T21:28:31.923Z,34.15
2022-11-29T21:30:58.859Z,29.90
2022-11-29T21:33:25.776Z,31.40
2022-11-29T21:35:55.222Z,32.33
2022-11-29T21:38:25.323Z,31.88
2022-11-29T21:40:52.191Z,32.22
2022-11-29T21:43:20.703Z,31.50
2022-11-29T21:45:49.692Z,29.67
2022-11-29T21:48:34.990Z,35.63
2022-11-29T21:51:09.291Z,28.67
2022-11-29T21:53:37.729Z,29.55
2022-11-29T21:56:07.493Z,29.50
2022-11-29T21:58:35.588Z,31.20
2022-11-29T22:01:17.299Z,30.35
2022-11-29T22:03:44.671Z,30.00
2022-11-29T22:06:18.297Z,33.33
2022-11-29T22:08:45.057Z,33.97
2022-11-29T22:11:17.434Z,33.35
2022-11-29T22:14:03.203Z,30.23
2022-11-29T22:16:30.604Z,32.53
2022-11-29T22:18:57.387Z,32.55
2022-11-29T22:21:24.176Z,32.23
2022-11-29T22:23:52.733Z,31.08
2022-11-29T22:26:19.462Z,36.15
2022-11-29T22:28:46.195Z,32.53
2022-11-29T22:31:13.126Z,31.73
2022-11-29T22:33:40.238Z,34.53
2022-11-29T22:36:11.780Z,39.25
2022-11-29T22:38:39.458Z,38.83
2022-11-29T22:41:11.223Z,32.47
2022-11-29T22:43:39.643Z,35.97
2022-11-29T22:46:12.920Z,34.47
2022-11-29T22:48:40.979Z,32.90
2022-11-29T22:51:16.227Z,30.50
2022-11-29T22:53:47.801Z,34.00
2022-11-29T22:56:14.595Z,34.00
2022-11-29T22:58:41.392Z,32.73
2022-11-29T23:01:10.733Z,32.38
2022-11-29T23:03:40.672Z,35.35
2022-11-29T23:06:13.554Z,33.53
2022-11-29T23:08:42.046Z,44.33
2022-11-29T23:11:11.434Z,44.00
2022-11-29T23:13:40.374Z,44.13
2022-11-29T23:16:10.382Z,33.10
2022-11-29T23:18:38.474Z,33.58
2022-11-29T23:21:14.855Z,32.70
2022-11-29T23:23:42.095Z,31.10
2022-11-29T23:26:15.736Z,33.97
2022-11-29T23:28:42.402Z,31.60
2022-11-29T23:31:09.060Z,31.23
2022-11-29T23:33:35.777Z,30.35
2022-11-29T23:36:05.901Z,28.33
2022-11-29T23:38:33.487Z,30.35
2022-11-29T23:41:00.283Z,30.48
2022-11-29T23:43:35.378Z,27.83
2022-11-29T23:46:10.143Z,29.58
2022-11-29T23:48:36.918Z,32.17
2022-11-29T23:51:10.063Z,33.78
2022-11-29T23:53:37.861Z,32.13
2022-11-29T23:56:07.023Z,51.50
2022-11-29T23:58:35.821Z,68.53
